sensor_id;sensor_type;location;lat;lon;timestamp;P1;durP1;ratioP1;P2;durP2;ratioP2
49978;SDS011;35869;50.990;6.962;2022-08-23T00:02:07;5.95;;;3.53;;
49978;SDS011;35869;50.990;6.962;2022-08-23T00:07:10;4.90;;;3.53;;
49978;SDS011;35869;50.990;6.962;2022-08-23T00:12:17;6.28;;;4.10;;
49978;SDS011;35869;50.990;6.962;2022-08-23T00:17:19;5.25;;;3.42;;
49978;SDS011;35869;50.990;6.962;2022-08-23T00:22:19;6.35;;;3.78;;
49978;SDS011;35869;50.990;6.962;2022-08-23T00:27:20;4.75;;;3.22;;
49978;SDS011;35869;50.990;6.962;2022-08-23T00:32:24;6.70;;;4.50;;
49978;SDS011;35869;50.990;6.962;2022-08-23T00:37:29;9.60;;;4.93;;
49978;SDS011;35869;50.990;6.962;2022-08-23T00:47:40;7.70;;;5.40;;
49978;SDS011;35869;50.990;6.962;2022-08-23T00:52:43;7.18;;;5.65;;
49978;SDS011;35869;50.990;6.962;2022-08-23T00:57:51;7.20;;;4.72;;
49978;SDS011;35869;50.990;6.962;2022-08-23T01:02:52;7.37;;;4.03;;
49978;SDS011;35869;50.990;6.962;2022-08-23T01:07:53;4.82;;;3.88;;
49978;SDS011;35869;50.990;6.962;2022-08-23T01:12:59;5.55;;;3.80;;
49978;SDS011;35869;50.990;6.962;2022-08-23T01:18:07;6.10;;;4.32;;
49978;SDS011;35869;50.990;6.962;2022-08-23T01:28:27;5.82;;;5.18;;
49978;SDS011;35869;50.990;6.962;2022-08-23T01:33:28;8.32;;;5.18;;
49978;SDS011;35869;50.990;6.962;2022-08-23T01:38:28;5.87;;;4.37;;
49978;SDS011;35869;50.990;6.962;2022-08-23T01:43:28;7.07;;;4.45;;
49978;SDS011;35869;50.990;6.962;2022-08-23T01:48:29;6.03;;;4.18;;
49978;SDS011;35869;50.990;6.962;2022-08-23T01:53:29;4.75;;;4.28;;
49978;SDS011;35869;50.990;6.962;2022-08-23T01:58:30;6.65;;;3.97;;
49978;SDS011;35869;50.990;6.962;2022-08-23T02:03:31;5.60;;;4.55;;
49978;SDS011;35869;50.990;6.962;2022-08-23T02:08:32;6.35;;;4.88;;
49978;SDS011;35869;50.990;6.962;2022-08-23T02:13:32;6.50;;;4.43;;
49978;SDS011;35869;50.990;6.962;2022-08-23T02:18:33;5.13;;;4.00;;
49978;SDS011;35869;50.990;6.962;2022-08-23T02:23:33;6.32;;;4.43;;
49978;SDS011;35869;50.990;6.962;2022-08-23T02:28:34;7.07;;;4.57;;
49978;SDS011;35869;50.990;6.962;2022-08-23T02:33:34;7.47;;;4.40;;
49978;SDS011;35869;50.990;6.962;2022-08-23T02:38:34;4.87;;;4.40;;
49978;SDS011;35869;50.990;6.962;2022-08-23T02:43:34;6.78;;;4.75;;
49978;SDS011;35869;50.990;6.962;2022-08-23T02:48:35;8.88;;;4.85;;
49978;SDS011;35869;50.990;6.962;2022-08-23T02:53:36;6.30;;;4.85;;
49978;SDS011;35869;50.990;6.962;2022-08-23T02:58:37;7.47;;;5.18;;
49978;SDS011;35869;50.990;6.962;2022-08-23T03:03:37;6.07;;;4.18;;
49978;SDS011;35869;50.990;6.962;2022-08-23T03:08:38;7.60;;;4.57;;
49978;SDS011;35869;50.990;6.962;2022-08-23T03:13:39;7.38;;;4.50;;
49978;SDS011;35869;50.990;6.962;2022-08-23T03:18:39;8.55;;;4.90;;
49978;SDS011;35869;50.990;6.962;2022-08-23T03:23:40;6.13;;;5.05;;
49978;SDS011;35869;50.990;6.962;2022-08-23T03:28:41;5.93;;;4.53;;
49978;SDS011;35869;50.990;6.962;2022-08-23T03:33:43;7.43;;;4.68;;
49978;SDS011;35869;50.990;6.962;2022-08-23T03:38:43;6.82;;;4.63;;
49978;SDS011;35869;50.990;6.962;2022-08-23T03:43:43;7.67;;;5.53;;
49978;SDS011;35869;50.990;6.962;2022-08-23T03:53:44;5.72;;;4.78;;
49978;SDS011;35869;50.990;6.962;2022-08-23T03:58:45;5.65;;;4.78;;
49978;SDS011;35869;50.990;6.962;2022-08-23T04:03:45;6.75;;;4.70;;
49978;SDS011;35869;50.990;6.962;2022-08-23T04:08:45;6.57;;;4.90;;
49978;SDS011;35869;50.990;6.962;2022-08-23T04:13:46;5.53;;;5.00;;
49978;SDS011;35869;50.990;6.962;2022-08-23T04:18:46;8.77;;;4.57;;
49978;SDS011;35869;50.990;6.962;2022-08-23T04:23:46;7.27;;;4.53;;
49978;SDS011;35869;50.990;6.962;2022-08-23T04:33:47;8.55;;;5.32;;
49978;SDS011;35869;50.990;6.962;2022-08-23T04:38:47;7.43;;;4.67;;
49978;SDS011;35869;50.990;6.962;2022-08-23T04:43:48;6.70;;;4.77;;
49978;SDS011;35869;50.990;6.962;2022-08-23T04:53:49;6.50;;;5.35;;
49978;SDS011;35869;50.990;6.962;2022-08-23T04:58:49;6.28;;;5.03;;
49978;SDS011;35869;50.990;6.962;2022-08-23T05:03:50;7.65;;;5.88;;
49978;SDS011;35869;50.990;6.962;2022-08-23T05:08:51;7.70;;;5.45;;
49978;SDS011;35869;50.990;6.962;2022-08-23T05:18:52;11.95;;;5.88;;
49978;SDS011;35869;50.990;6.962;2022-08-23T05:28:52;8.90;;;5.85;;
49978;SDS011;35869;50.990;6.962;2022-08-23T05:33:52;8.10;;;5.50;;
49978;SDS011;35869;50.990;6.962;2022-08-23T05:43:53;7.07;;;5.03;;
49978;SDS011;35869;50.990;6.962;2022-08-23T05:48:53;8.73;;;5.67;;
49978;SDS011;35869;50.990;6.962;2022-08-23T05:58:58;7.88;;;5.40;;
49978;SDS011;35869;50.990;6.962;2022-08-23T06:04:00;6.93;;;4.60;;
49978;SDS011;35869;50.990;6.962;2022-08-23T06:09:03;7.40;;;4.68;;
49978;SDS011;35869;50.990;6.962;2022-08-23T06:14:05;7.05;;;4.63;;
49978;SDS011;35869;50.990;6.962;2022-08-23T06:19:07;15.40;;;4.40;;
49978;SDS011;35869;50.990;6.962;2022-08-23T06:24:08;5.60;;;3.95;;
49978;SDS011;35869;50.990;6.962;2022-08-23T06:29:12;7.40;;;3.72;;
49978;SDS011;35869;50.990;6.962;2022-08-23T06:34:21;5.88;;;3.50;;
49978;SDS011;35869;50.990;6.962;2022-08-23T06:39:25;5.13;;;3.10;;
49978;SDS011;35869;50.990;6.962;2022-08-23T06:44:27;6.15;;;3.20;;
49978;SDS011;35869;50.990;6.962;2022-08-23T06:49:28;4.07;;;3.38;;
49978;SDS011;35869;50.990;6.962;2022-08-23T06:54:29;5.75;;;3.55;;
49978;SDS011;35869;50.990;6.962;2022-08-23T06:59:32;6.72;;;3.42;;
49978;SDS011;35869;50.990;6.962;2022-08-23T07:04:37;6.35;;;3.20;;
49978;SDS011;35869;50.990;6.962;2022-08-23T07:09:38;3.60;;;2.80;;
49978;SDS011;35869;50.990;6.962;2022-08-23T07:14:40;8.98;;;3.53;;
49978;SDS011;35869;50.990;6.962;2022-08-23T07:19:40;4.57;;;3.43;;
49978;SDS011;35869;50.990;6.962;2022-08-23T07:24:40;6.78;;;3.22;;
49978;SDS011;35869;50.990;6.962;2022-08-23T07:29:40;9.73;;;3.67;;
49978;SDS011;35869;50.990;6.962;2022-08-23T07:34:41;8.33;;;3.27;;
49978;SDS011;35869;50.990;6.962;2022-08-23T07:39:41;8.98;;;2.80;;
49978;SDS011;35869;50.990;6.962;2022-08-23T07:44:42;5.22;;;2.92;;
49978;SDS011;35869;50.990;6.962;2022-08-23T07:49:43;9.07;;;3.30;;
49978;SDS011;35869;50.990;6.962;2022-08-23T07:54:43;5.65;;;2.78;;
49978;SDS011;35869;50.990;6.962;2022-08-23T07:59:43;7.55;;;3.00;;
49978;SDS011;35869;50.990;6.962;2022-08-23T08:04:43;7.28;;;2.70;;
49978;SDS011;35869;50.990;6.962;2022-08-23T08:09:44;6.95;;;2.75;;
49978;SDS011;35869;50.990;6.962;2022-08-23T08:14:44;10.02;;;3.40;;
49978;SDS011;35869;50.990;6.962;2022-08-23T08:19:45;7.82;;;3.42;;
49978;SDS011;35869;50.990;6.962;2022-08-23T08:24:46;4.13;;;3.00;;
49978;SDS011;35869;50.990;6.962;2022-08-23T08:29:46;8.20;;;3.45;;
49978;SDS011;35869;50.990;6.962;2022-08-23T08:34:46;5.40;;;3.28;;
49978;SDS011;35869;50.990;6.962;2022-08-23T08:39:46;9.35;;;3.20;;
49978;SDS011;35869;50.990;6.962;2022-08-23T08:44:50;8.70;;;3.13;;
49978;SDS011;35869;50.990;6.962;2022-08-23T08:50:00;5.68;;;3.47;;
49978;SDS011;35869;50.990;6.962;2022-08-23T08:55:09;7.22;;;3.13;;
49978;SDS011;35869;50.990;6.962;2022-08-23T09:05:17;9.38;;;3.53;;
49978;SDS011;35869;50.990;6.962;2022-08-23T09:10:28;8.43;;;3.22;;
49978;SDS011;35869;50.990;6.962;2022-08-23T09:15:37;7.25;;;3.17;;
49978;SDS011;35869;50.990;6.962;2022-08-23T09:20:46;6.85;;;3.60;;
49978;SDS011;35869;50.990;6.962;2022-08-23T09:25:53;6.28;;;3.08;;
49978;SDS011;35869;50.990;6.962;2022-08-23T09:30:57;5.18;;;3.28;;
49978;SDS011;35869;50.990;6.962;2022-08-23T09:41:15;5.88;;;2.85;;
49978;SDS011;35869;50.990;6.962;2022-08-23T09:46:31;6.53;;;3.13;;
49978;SDS011;35869;50.990;6.962;2022-08-23T09:51:34;6.30;;;3.45;;
49978;SDS011;35869;50.990;6.962;2022-08-23T09:56:41;7.25;;;3.40;;
49978;SDS011;35869;50.990;6.962;2022-08-23T10:01:43;7.20;;;3.20;;
49978;SDS011;35869;50.990;6.962;2022-08-23T10:06:46;9.32;;;3.40;;
49978;SDS011;35869;50.990;6.962;2022-08-23T10:11:47;8.43;;;3.40;;
49978;SDS011;35869;50.990;6.962;2022-08-23T10:16:56;8.23;;;3.33;;
49978;SDS011;35869;50.990;6.962;2022-08-23T10:22:19;4.83;;;2.70;;
49978;SDS011;35869;50.990;6.962;2022-08-23T10:47:41;9.85;;;3.75;;
49978;SDS011;35869;50.990;6.962;2022-08-23T10:57:53;8.75;;;3.08;;
49978;SDS011;35869;50.990;6.962;2022-08-23T11:08:30;8.23;;;3.60;;
49978;SDS011;35869;50.990;6.962;2022-08-23T11:13:33;7.53;;;3.08;;
49978;SDS011;35869;50.990;6.962;2022-08-23T11:34:27;6.13;;;3.00;;
49978;SDS011;35869;50.990;6.962;2022-08-23T11:39:58;4.90;;;2.80;;
49978;SDS011;35869;50.990;6.962;2022-08-23T11:44:55;6.43;;;2.90;;
49978;SDS011;35869;50.990;6.962;2022-08-23T11:50:13;6.78;;;3.17;;
49978;SDS011;35869;50.990;6.962;2022-08-23T11:55:33;5.38;;;2.50;;
49978;SDS011;35869;50.990;6.962;2022-08-23T12:32:00;6.75;;;2.30;;
49978;SDS011;35869;50.990;6.962;2022-08-23T12:42:30;5.70;;;2.42;;
49978;SDS011;35869;50.990;6.962;2022-08-23T12:47:33;6.10;;;2.28;;
49978;SDS011;35869;50.990;6.962;2022-08-23T12:52:35;5.95;;;2.08;;
49978;SDS011;35869;50.990;6.962;2022-08-23T12:57:37;8.43;;;2.50;;
49978;SDS011;35869;50.990;6.962;2022-08-23T13:02:41;4.97;;;2.28;;
49978;SDS011;35869;50.990;6.962;2022-08-23T13:07:46;6.82;;;2.22;;
49978;SDS011;35869;50.990;6.962;2022-08-23T13:12:47;8.65;;;2.35;;
49978;SDS011;35869;50.990;6.962;2022-08-23T13:17:57;4.45;;;2.03;;
49978;SDS011;35869;50.990;6.962;2022-08-23T13:28:25;6.77;;;2.13;;
49978;SDS011;35869;50.990;6.962;2022-08-23T13:33:28;3.58;;;1.98;;
49978;SDS011;35869;50.990;6.962;2022-08-23T13:38:29;3.80;;;2.03;;
49978;SDS011;35869;50.990;6.962;2022-08-23T13:48:48;4.13;;;2.65;;
49978;SDS011;35869;50.990;6.962;2022-08-23T13:53:56;5.03;;;2.40;;
49978;SDS011;35869;50.990;6.962;2022-08-23T13:59:02;3.83;;;2.00;;
49978;SDS011;35869;50.990;6.962;2022-08-23T14:04:07;6.05;;;2.30;;
49978;SDS011;35869;50.990;6.962;2022-08-23T14:09:07;3.00;;;2.30;;
49978;SDS011;35869;50.990;6.962;2022-08-23T14:14:08;2.93;;;2.03;;
49978;SDS011;35869;50.990;6.962;2022-08-23T14:19:11;4.60;;;2.50;;
49978;SDS011;35869;50.990;6.962;2022-08-23T14:24:11;5.10;;;2.42;;
49978;SDS011;35869;50.990;6.962;2022-08-23T14:29:11;5.23;;;2.17;;
49978;SDS011;35869;50.990;6.962;2022-08-23T14:34:12;6.63;;;2.45;;
49978;SDS011;35869;50.990;6.962;2022-08-23T14:39:12;3.55;;;1.90;;
49978;SDS011;35869;50.990;6.962;2022-08-23T14:44:12;4.90;;;1.98;;
49978;SDS011;35869;50.990;6.962;2022-08-23T14:49:13;5.13;;;1.80;;
49978;SDS011;35869;50.990;6.962;2022-08-23T14:54:16;4.53;;;1.98;;
49978;SDS011;35869;50.990;6.962;2022-08-23T14:59:19;5.63;;;2.05;;
49978;SDS011;35869;50.990;6.962;2022-08-23T15:04:20;5.20;;;2.13;;
49978;SDS011;35869;50.990;6.962;2022-08-23T15:09:22;5.85;;;2.67;;
49978;SDS011;35869;50.990;6.962;2022-08-23T15:14:22;3.87;;;2.00;;
49978;SDS011;35869;50.990;6.962;2022-08-23T15:19:23;5.70;;;1.77;;
49978;SDS011;35869;50.990;6.962;2022-08-23T15:24:23;4.30;;;2.50;;
49978;SDS011;35869;50.990;6.962;2022-08-23T15:29:25;5.70;;;1.73;;
49978;SDS011;35869;50.990;6.962;2022-08-23T15:34:26;8.45;;;2.08;;
49978;SDS011;35869;50.990;6.962;2022-08-23T15:39:26;6.15;;;1.92;;
49978;SDS011;35869;50.990;6.962;2022-08-23T15:44:27;4.37;;;2.03;;
49978;SDS011;35869;50.990;6.962;2022-08-23T15:49:27;3.97;;;2.03;;
49978;SDS011;35869;50.990;6.962;2022-08-23T15:54:27;6.67;;;2.03;;
49978;SDS011;35869;50.990;6.962;2022-08-23T15:59:27;5.22;;;1.80;;
49978;SDS011;35869;50.990;6.962;2022-08-23T16:04:30;4.25;;;2.05;;
49978;SDS011;35869;50.990;6.962;2022-08-23T16:09:30;5.20;;;2.22;;
49978;SDS011;35869;50.990;6.962;2022-08-23T16:14:33;5.13;;;1.77;;
49978;SDS011;35869;50.990;6.962;2022-08-23T16:19:33;3.08;;;1.73;;
49978;SDS011;35869;50.990;6.962;2022-08-23T16:24:34;6.07;;;2.10;;
49978;SDS011;35869;50.990;6.962;2022-08-23T16:29:35;4.68;;;2.35;;
49978;SDS011;35869;50.990;6.962;2022-08-23T16:34:35;5.05;;;1.63;;
49978;SDS011;35869;50.990;6.962;2022-08-23T16:39:36;5.07;;;2.10;;
49978;SDS011;35869;50.990;6.962;2022-08-23T16:44:36;5.57;;;2.05;;
49978;SDS011;35869;50.990;6.962;2022-08-23T16:49:36;4.57;;;1.83;;
49978;SDS011;35869;50.990;6.962;2022-08-23T16:54:37;4.50;;;1.88;;
49978;SDS011;35869;50.990;6.962;2022-08-23T16:59:37;4.18;;;1.75;;
49978;SDS011;35869;50.990;6.962;2022-08-23T17:04:38;4.30;;;1.50;;
49978;SDS011;35869;50.990;6.962;2022-08-23T17:09:38;7.70;;;2.08;;
49978;SDS011;35869;50.990;6.962;2022-08-23T17:14:38;2.90;;;2.00;;
49978;SDS011;35869;50.990;6.962;2022-08-23T17:19:39;2.08;;;1.55;;
49978;SDS011;35869;50.990;6.962;2022-08-23T17:24:40;3.00;;;1.70;;
49978;SDS011;35869;50.990;6.962;2022-08-23T17:29:40;4.32;;;1.60;;
49978;SDS011;35869;50.990;6.962;2022-08-23T17:34:40;5.00;;;1.98;;
49978;SDS011;35869;50.990;6.962;2022-08-23T17:39:41;5.30;;;1.80;;
49978;SDS011;35869;50.990;6.962;2022-08-23T17:44:41;3.90;;;1.55;;
49978;SDS011;35869;50.990;6.962;2022-08-23T17:49:42;2.92;;;1.67;;
49978;SDS011;35869;50.990;6.962;2022-08-23T17:54:43;6.60;;;2.10;;
49978;SDS011;35869;50.990;6.962;2022-08-23T17:59:43;4.55;;;1.67;;
49978;SDS011;35869;50.990;6.962;2022-08-23T18:04:44;3.20;;;1.67;;
49978;SDS011;35869;50.990;6.962;2022-08-23T18:09:45;5.97;;;2.03;;
49978;SDS011;35869;50.990;6.962;2022-08-23T18:14:45;10.35;;;1.90;;
49978;SDS011;35869;50.990;6.962;2022-08-23T18:24:46;4.97;;;1.48;;
49978;SDS011;35869;50.990;6.962;2022-08-23T18:34:46;5.18;;;1.55;;
49978;SDS011;35869;50.990;6.962;2022-08-23T18:39:47;6.32;;;2.10;;
49978;SDS011;35869;50.990;6.962;2022-08-23T18:44:47;4.45;;;1.60;;
49978;SDS011;35869;50.990;6.962;2022-08-23T18:54:48;4.33;;;2.27;;
49978;SDS011;35869;50.990;6.962;2022-08-23T19:04:49;5.70;;;1.90;;
49978;SDS011;35869;50.990;6.962;2022-08-23T19:09:49;5.63;;;2.70;;
49978;SDS011;35869;50.990;6.962;2022-08-23T19:19:49;4.90;;;1.92;;
49978;SDS011;35869;50.990;6.962;2022-08-23T19:24:50;4.18;;;2.28;;
49978;SDS011;35869;50.990;6.962;2022-08-23T19:29:50;4.22;;;2.50;;
49978;SDS011;35869;50.990;6.962;2022-08-23T19:34:50;4.47;;;2.00;;
49978;SDS011;35869;50.990;6.962;2022-08-23T19:39:51;2.27;;;1.90;;
49978;SDS011;35869;50.990;6.962;2022-08-23T19:44:51;5.77;;;2.33;;
49978;SDS011;35869;50.990;6.962;2022-08-23T19:49:52;3.67;;;2.50;;
49978;SDS011;35869;50.990;6.962;2022-08-23T19:54:52;5.95;;;2.47;;
49978;SDS011;35869;50.990;6.962;2022-08-23T19:59:56;4.53;;;2.10;;
49978;SDS011;35869;50.990;6.962;2022-08-23T20:04:57;4.68;;;2.72;;
49978;SDS011;35869;50.990;6.962;2022-08-23T20:09:57;7.60;;;6.32;;
49978;SDS011;35869;50.990;6.962;2022-08-23T20:14:58;5.97;;;2.72;;
49978;SDS011;35869;50.990;6.962;2022-08-23T20:19:58;5.82;;;2.35;;
49978;SDS011;35869;50.990;6.962;2022-08-23T20:24:59;6.28;;;2.75;;
49978;SDS011;35869;50.990;6.962;2022-08-23T20:29:59;5.93;;;2.30;;
49978;SDS011;35869;50.990;6.962;2022-08-23T20:35:00;6.87;;;2.80;;
49978;SDS011;35869;50.990;6.962;2022-08-23T20:40:02;4.00;;;2.50;;
49978;SDS011;35869;50.990;6.962;2022-08-23T20:45:03;4.28;;;2.30;;
49978;SDS011;35869;50.990;6.962;2022-08-23T20:50:04;6.50;;;3.13;;
49978;SDS011;35869;50.990;6.962;2022-08-23T20:55:05;7.22;;;5.53;;
49978;SDS011;35869;50.990;6.962;2022-08-23T21:00:06;7.60;;;3.25;;
49978;SDS011;35869;50.990;6.962;2022-08-23T21:05:07;3.85;;;2.85;;
49978;SDS011;35869;50.990;6.962;2022-08-23T21:10:08;5.43;;;3.50;;
49978;SDS011;35869;50.990;6.962;2022-08-23T21:15:08;5.00;;;3.00;;
49978;SDS011;35869;50.990;6.962;2022-08-23T21:20:09;8.85;;;2.90;;
49978;SDS011;35869;50.990;6.962;2022-08-23T21:25:09;5.95;;;3.17;;
49978;SDS011;35869;50.990;6.962;2022-08-23T21:30:10;7.10;;;3.13;;
49978;SDS011;35869;50.990;6.962;2022-08-23T21:35:10;5.60;;;2.70;;
49978;SDS011;35869;50.990;6.962;2022-08-23T21:40:11;6.40;;;3.05;;
49978;SDS011;35869;50.990;6.962;2022-08-23T21:45:12;4.55;;;2.80;;
49978;SDS011;35869;50.990;6.962;2022-08-23T21:50:12;5.87;;;3.10;;
49978;SDS011;35869;50.990;6.962;2022-08-23T22:00:24;5.82;;;2.65;;
49978;SDS011;35869;50.990;6.962;2022-08-23T22:05:25;5.25;;;3.28;;
49978;SDS011;35869;50.990;6.962;2022-08-23T22:10:25;4.40;;;3.13;;
49978;SDS011;35869;50.990;6.962;2022-08-23T22:15:26;5.47;;;2.80;;
49978;SDS011;35869;50.990;6.962;2022-08-23T22:20:26;5.60;;;3.85;;
49978;SDS011;35869;50.990;6.962;2022-08-23T22:25:27;7.60;;;3.72;;
49978;SDS011;35869;50.990;6.962;2022-08-23T22:30:27;5.20;;;3.17;;
49978;SDS011;35869;50.990;6.962;2022-08-23T22:35:28;6.00;;;3.33;;
49978;SDS011;35869;50.990;6.962;2022-08-23T22:40:31;7.88;;;3.45;;
49978;SDS011;35869;50.990;6.962;2022-08-23T22:45:32;6.10;;;3.03;;
49978;SDS011;35869;50.990;6.962;2022-08-23T22:50:32;9.15;;;3.53;;
49978;SDS011;35869;50.990;6.962;2022-08-23T22:55:32;4.25;;;3.20;;
49978;SDS011;35869;50.990;6.962;2022-08-23T23:00:32;4.85;;;3.50;;
49978;SDS011;35869;50.990;6.962;2022-08-23T23:05:34;6.45;;;3.08;;
49978;SDS011;35869;50.990;6.962;2022-08-23T23:10:34;6.63;;;3.22;;
49978;SDS011;35869;50.990;6.962;2022-08-23T23:15:35;4.80;;;3.05;;
49978;SDS011;35869;50.990;6.962;2022-08-23T23:20:35;5.03;;;3.10;;
49978;SDS011;35869;50.990;6.962;2022-08-23T23:25:35;4.55;;;3.38;;
49978;SDS011;35869;50.990;6.962;2022-08-23T23:30:36;6.25;;;3.10;;
49978;SDS011;35869;50.990;6.962;2022-08-23T23:35:36;5.20;;;3.63;;
49978;SDS011;35869;50.990;6.962;2022-08-23T23:40:37;5.40;;;3.38;;
49978;SDS011;35869;50.990;6.962;2022-08-23T23:45:38;6.68;;;3.92;;
49978;SDS011;35869;50.990;6.962;2022-08-23T23:50:39;6.43;;;4.18;;
49978;SDS011;35869;50.990;6.962;2022-08-23T23:55:41;8.77;;;3.45;;
